Time;durP1;ratioP1;P1;durP2;ratioP2;P2;SDS_P1;SDS_P2;PMS_P1;PMS_P2;Temp;Humidity;BMP_temperature;BMP_pressure;BME280_temperature;BME280_humidity;BME280_pressure;Samples;Min_cycle;Max_cycle;Signal;HPM_P1;HPM_P2
2022/09/24 00:01:25;;;;;;;7.07;4.25;;;;;;;8.19;78.32;99717.16;4955602;28;20031;-92
2022/09/24 00:03:53;;;;;;;5.32;3.63;;;;;;;8.20;78.68;99710.75;4923689;29;20026;-91
2022/09/24 00:06:19;;;;;;;8.25;3.40;;;;;;;8.03;79.53;99722.28;4939078;29;20031;-92
2022/09/24 00:08:48;;;;;;;4.82;3.15;;;;;;;7.94;80.17;99718.38;4923606;29;20034;-92
2022/09/24 00:11:14;;;;;;;6.28;3.20;;;;;;;7.89;79.66;99718.28;4939582;29;20110;-91
2022/09/24 00:13:39;;;;;;;4.63;3.45;;;;;;;7.90;79.58;99707.31;4938953;28;20155;-92
2022/09/24 00:16:10;;;;;;;6.13;3.67;;;;;;;7.97;79.09;99707.19;4923421;29;20038;-92
2022/09/24 00:18:35;;;;;;;4.43;2.67;;;;;;;7.92;79.27;99711.63;4913359;29;20056;-92
2022/09/24 00:21:16;;;;;;;4.55;2.92;;;;;;;7.92;79.10;99709.75;4900784;29;20028;-92
2022/09/24 00:23:43;;;;;;;6.03;2.58;;;;;;;7.71;79.78;99705.91;4905741;29;20035;-91
2022/09/24 00:29:01;;;;;;;4.75;2.67;;;;;;;7.97;78.72;99722.44;4932895;29;20480;-92
2022/09/24 00:31:27;;;;;;;4.00;2.75;;;;;;;8.12;78.29;99720.00;4923246;29;20031;-91
2022/09/24 00:33:53;;;;;;;6.18;3.40;;;;;;;8.10;78.43;99712.22;4950378;29;20023;-92
2022/09/24 00:36:20;;;;;;;9.82;4.20;;;;;;;8.09;78.46;99699.03;4935604;29;20565;-91
2022/09/24 00:38:49;;;;;;;4.85;3.30;;;;;;;8.07;79.51;99698.47;4908398;29;20495;-91
2022/09/24 00:41:18;;;;;;;4.25;2.70;;;;;;;8.08;78.84;99714.31;4955248;29;20027;-92
2022/09/24 00:43:44;;;;;;;4.75;2.25;;;;;;;7.93;78.76;99700.66;4923628;29;20462;-91
2022/09/24 00:46:26;;;;;;;7.40;2.95;;;;;;;8.02;78.81;99715.28;4939007;29;20182;-91
2022/09/24 00:49:03;;;;;;;3.78;2.50;;;;;;;7.82;78.59;99690.81;4955878;29;20026;-92
2022/09/24 00:51:30;;;;;;;3.28;2.35;;;;;;;7.87;77.95;99691.72;4955830;28;20035;-91
2022/09/24 00:54:00;;;;;;;3.15;2.30;;;;;;;7.85;79.34;99717.16;4938636;29;20050;-91
2022/09/24 00:56:26;;;;;;;3.60;2.63;;;;;;;7.79;79.18;99708.19;4937672;29;20043;-91
2022/09/24 00:58:53;;;;;;;2.85;2.40;;;;;;;7.85;78.22;99701.06;4922506;29;20520;-91
2022/09/24 01:01:19;;;;;;;8.90;3.47;;;;;;;7.67;79.23;99697.53;4938179;28;20027;-91
2022/09/24 01:03:45;;;;;;;6.82;5.43;;;;;;;7.59;79.78;99699.78;4938191;29;20020;-92
2022/09/24 01:06:13;;;;;;;8.48;6.43;;;;;;;7.61;79.38;99713.78;4938494;29;20034;-92
2022/09/24 01:08:39;;;;;;;11.63;8.43;;;;;;;7.56;79.34;99694.94;4966189;28;20027;-92
2022/09/24 01:11:08;;;;;;;17.83;13.13;;;;;;;7.64;79.54;99716.78;4934712;29;20103;-91
2022/09/24 01:13:44;;;;;;;25.30;16.77;;;;;;;7.52;80.10;99708.00;4937568;29;20510;-91
2022/09/24 01:16:36;;;;;;;18.95;14.85;;;;;;;7.27;80.67;99677.00;4954142;29;20038;-92
2022/09/24 01:19:22;;;;;;;22.75;16.63;;;;;;;7.43;79.68;99702.22;4938513;29;20569;-91
2022/09/24 01:21:54;;;;;;;27.60;19.42;;;;;;;7.15;79.84;99678.91;4955084;29;20039;-91
2022/09/24 01:25:00;;;;;;;21.95;16.52;;;;;;;7.43;79.08;99696.84;4938113;29;20398;-91
2022/09/24 01:28:00;;;;;;;20.35;14.68;;;;;;;7.55;78.40;99701.31;4953810;29;20055;-91
2022/09/24 01:30:26;;;;;;;18.98;14.60;;;;;;;7.48;78.57;99699.63;4953317;29;20023;-91
2022/09/24 01:32:55;;;;;;;15.93;11.82;;;;;;;7.52;78.44;99694.59;4938542;29;20035;-91
2022/09/24 01:35:28;;;;;;;10.88;8.15;;;;;;;7.48;79.10;99688.88;4917789;29;20049;-91
2022/09/24 01:38:03;;;;;;;7.55;5.88;;;;;;;7.68;78.22;99701.06;4919257;29;20098;-91
2022/09/24 01:40:30;;;;;;;9.15;5.97;;;;;;;7.67;78.88;99704.78;4935208;29;20122;-91
2022/09/24 01:42:58;;;;;;;7.10;5.28;;;;;;;7.55;77.86;99671.84;4903109;29;20039;-91
2022/09/24 01:45:25;;;;;;;8.43;5.75;;;;;;;7.66;77.65;99681.72;4903124;29;20063;-91
2022/09/24 01:47:51;;;;;;;8.45;5.80;;;;;;;7.77;77.72;99696.91;4934340;29;20099;-91
2022/09/24 01:50:19;;;;;;;8.43;6.65;;;;;;;7.94;77.64;99713.00;4934873;29;20035;-91
2022/09/24 01:53:03;;;;;;;12.02;5.82;;;;;;;8.05;77.40;99709.44;4935164;29;20438;-91
2022/09/24 01:55:37;;;;;;;7.75;6.10;;;;;;;8.02;77.12;99703.75;4936373;29;20446;-91
2022/09/24 01:58:17;;;;;;;8.10;5.82;;;;;;;8.13;77.78;99713.56;4903785;29;20040;-91
2022/09/24 02:00:45;;;;;;;8.68;5.50;;;;;;;7.92;77.37;99701.72;4934692;29;20040;-91
2022/09/24 02:03:20;;;;;;;6.55;5.00;;;;;;;7.85;77.98;99704.56;4903160;29;20050;-91
2022/09/24 02:05:52;;;;;;;6.60;5.10;;;;;;;8.05;77.12;99703.25;4939273;29;20142;-91
2022/09/24 02:08:20;;;;;;;6.13;4.35;;;;;;;7.96;75.98;99696.69;4954227;29;20098;-91
2022/09/24 02:10:53;;;;;;;6.85;4.88;;;;;;;8.16;76.17;99706.94;4938304;29;20054;-91
2022/09/24 02:13:23;;;;;;;8.23;5.20;;;;;;;7.93;76.43;99683.75;4938571;29;20106;-91
2022/09/24 02:15:51;;;;;;;6.45;5.10;;;;;;;7.95;77.36;99709.28;4943146;29;20465;-92
2022/09/24 02:18:18;;;;;;;8.65;5.68;;;;;;;7.63;77.83;99695.59;4941661;29;20571;-91
2022/09/24 02:20:43;;;;;;;8.13;5.10;;;;;;;7.47;78.70;99689.97;4956880;29;20035;-90
2022/09/24 02:23:13;;;;;;;9.20;5.13;;;;;;;7.44;78.13;99690.44;4925356;29;20086;-91
2022/09/24 02:25:57;;;;;;;8.93;4.88;;;;;;;7.58;78.04;99714.25;4920161;29;20455;-91
2022/09/24 02:28:25;;;;;;;9.23;4.68;;;;;;;7.46;77.54;99684.84;4903607;29;20046;-91
2022/09/24 02:31:26;;;;;;;6.65;4.70;;;;;;;7.57;78.30;99712.63;4903697;29;20091;-91
2022/09/24 02:36:40;;;;;;;10.57;4.43;;;;;;;7.37;78.34;99697.81;4938016;29;20062;-91
2022/09/24 02:39:06;;;;;;;6.07;4.15;;;;;;;7.52;77.93;99720.59;4913623;29;20094;-91
2022/09/24 02:41:33;;;;;;;11.55;4.82;;;;;;;7.37;78.63;99716.56;4956925;29;20093;-91
2022/09/24 02:43:59;;;;;;;5.82;4.50;;;;;;;7.44;78.34;99713.72;4940242;29;20031;-91
2022/09/24 02:46:25;;;;;;;5.55;4.07;;;;;;;7.39;77.71;99709.09;4940896;29;20035;-91
2022/09/24 02:48:51;;;;;;;4.80;3.70;;;;;;;7.44;78.25;99721.78;4950015;29;20031;-91
2022/09/24 02:51:18;;;;;;;4.95;3.80;;;;;;;7.43;77.58;99720.97;4921950;29;20055;-90
2022/09/24 02:53:44;;;;;;;4.85;3.75;;;;;;;7.44;77.52;99714.53;4942262;29;20402;-90
2022/09/24 02:56:10;;;;;;;5.68;3.47;;;;;;;7.41;77.79;99701.63;4956272;29;20504;-90
2022/09/24 02:58:36;;;;;;;3.83;3.03;;;;;;;7.37;77.77;99713.88;4940886;29;20027;-91
2022/09/24 03:01:04;;;;;;;6.80;2.88;;;;;;;7.51;77.17;99716.25;4956190;29;20110;-90
2022/09/24 03:03:30;;;;;;;3.72;2.35;;;;;;;7.36;77.63;99725.63;4953883;29;20159;-90
2022/09/24 03:05:56;;;;;;;6.35;2.47;;;;;;;7.37;77.29;99732.63;4937320;29;20122;-90
2022/09/24 03:08:23;;;;;;;5.13;2.30;;;;;;;7.11;78.06;99712.56;4937030;29;20087;-90
2022/09/24 03:10:49;;;;;;;4.13;2.17;;;;;;;7.13;78.98;99731.06;4936920;29;20126;-90
2022/09/24 03:13:18;;;;;;;2.85;1.98;;;;;;;7.04;78.94;99717.25;4922036;29;20050;-90
2022/09/24 03:15:44;;;;;;;2.67;2.05;;;;;;;7.14;77.90;99733.53;4924873;29;20494;-91
2022/09/24 03:18:10;;;;;;;2.92;2.35;;;;;;;7.15;77.76;99724.41;4924446;29;20102;-91
2022/09/24 03:20:36;;;;;;;3.17;2.22;;;;;;;7.00;78.80;99719.56;4940429;29;20043;-90
2022/09/24 03:23:02;;;;;;;3.90;2.47;;;;;;;7.06;77.95;99720.50;4939453;29;20083;-90
2022/09/24 03:25:28;;;;;;;3.40;2.63;;;;;;;7.12;77.86;99724.91;4933354;29;20127;-91
2022/09/24 03:27:54;;;;;;;5.10;3.08;;;;;;;7.19;77.10;99720.22;4903047;29;20039;-90
2022/09/24 03:33:05;;;;;;;5.85;2.40;;;;;;;7.07;77.94;99728.28;4918040;29;20098;-90
2022/09/24 03:35:31;;;;;;;6.63;2.50;;;;;;;7.16;77.54;99733.25;4902185;29;20517;-91
2022/09/24 03:37:58;;;;;;;5.15;2.75;;;;;;;7.27;77.74;99756.53;4901703;29;20020;-91
2022/09/24 03:40:24;;;;;;;4.80;2.40;;;;;;;7.05;78.07;99743.75;4952717;28;20045;-90
2022/09/24 03:42:49;;;;;;;4.13;2.90;;;;;;;7.12;77.53;99740.13;4924158;29;20035;-90
2022/09/24 03:45:15;;;;;;;5.95;2.67;;;;;;;7.27;77.31;99754.66;4940122;29;20035;-90
2022/09/24 03:47:41;;;;;;;3.60;2.67;;;;;;;7.05;78.19;99743.75;4939562;28;20038;-91
2022/09/24 03:50:10;;;;;;;4.40;2.60;;;;;;;7.19;78.11;99762.25;4971692;28;20513;-91
2022/09/24 03:52:36;;;;;;;2.90;2.38;;;;;;;7.04;78.52;99762.75;4940091;28;20027;-91
2022/09/24 03:55:04;;;;;;;7.28;2.80;;;;;;;7.01;78.56;99772.06;4924159;29;20074;-91
2022/09/24 03:57:29;;;;;;;8.55;2.10;;;;;;;6.88;78.80;99761.59;4971513;28;20099;-90
2022/09/24 03:59:56;;;;;;;5.28;2.40;;;;;;;6.93;78.36;99772.44;4923808;29;20493;-91
2022/09/24 04:02:21;;;;;;;3.58;2.58;;;;;;;6.88;78.29;99756.25;4956374;28;20031;-90
2022/09/24 04:04:47;;;;;;;5.80;2.97;;;;;;;6.86;78.63;99755.66;4939488;29;20058;-91
2022/09/24 04:07:12;;;;;;;5.57;2.33;;;;;;;7.04;77.81;99774.28;4923786;29;20035;-92
2022/09/24 04:09:38;;;;;;;3.17;2.55;;;;;;;6.71;78.98;99758.03;4940062;29;20031;-90
2022/09/24 04:12:05;;;;;;;2.80;2.38;;;;;;;6.98;78.07;99785.13;4955176;29;20094;-90
2022/09/24 04:14:31;;;;;;;9.50;3.33;;;;;;;6.80;77.80;99776.16;4939079;29;20027;-90
2022/09/24 04:16:58;;;;;;;3.00;2.42;;;;;;;6.72;78.62;99773.81;4940154;29;20090;-90
2022/09/24 04:19:25;;;;;;;4.22;2.90;;;;;;;6.59;78.88;99772.19;4939655;29;20027;-90
2022/09/24 04:21:51;;;;;;;7.25;3.00;;;;;;;6.65;78.97;99778.50;4939960;29;20549;-91
2022/09/24 04:24:17;;;;;;;3.75;2.78;;;;;;;6.84;78.32;99804.06;4939218;29;20024;-90
2022/09/24 04:26:44;;;;;;;3.88;2.45;;;;;;;6.67;78.09;99771.03;4939535;29;20504;-90
2022/09/24 04:29:11;;;;;;;5.65;3.20;;;;;;;6.94;77.88;99802.69;4939041;29;20027;-91
2022/09/24 04:31:38;;;;;;;4.03;2.72;;;;;;;6.98;77.65;99806.53;4939442;29;20037;-90
2022/09/24 04:34:04;;;;;;;3.60;2.80;;;;;;;6.84;78.39;99798.72;4923376;29;20492;-90
2022/09/24 04:36:31;;;;;;;5.38;3.17;;;;;;;6.99;78.05;99806.31;4938529;29;20031;-93
2022/09/24 04:38:57;;;;;;;3.97;2.78;;;;;;;7.00;77.63;99793.72;4938845;29;20023;-90
2022/09/24 04:41:23;;;;;;;4.88;3.08;;;;;;;7.10;77.40;99793.94;4939206;29;20057;-90
2022/09/24 04:43:50;;;;;;;5.95;3.13;;;;;;;7.05;78.16;99799.97;4938763;29;20031;-90
2022/09/24 04:46:17;;;;;;;5.28;3.00;;;;;;;7.04;78.10;99801.06;4939492;29;20035;-89
2022/09/24 04:48:43;;;;;;;14.55;3.22;;;;;;;7.12;78.55;99815.13;4938862;29;20038;-90
2022/09/24 04:51:09;;;;;;;7.20;3.15;;;;;;;7.01;78.50;99812.22;4939320;29;20027;-92
2022/09/24 04:53:36;;;;;;;8.38;3.38;;;;;;;6.92;78.79;99800.25;4939167;29;20031;-90
2022/09/24 04:56:03;;;;;;;4.35;2.70;;;;;;;7.08;78.15;99825.50;4954998;29;20398;-90
2022/09/24 04:58:29;;;;;;;3.60;2.70;;;;;;;6.96;78.91;99816.66;4954428;29;20421;-90
2022/09/24 05:00:54;;;;;;;3.92;2.90;;;;;;;6.98;78.65;99818.03;4923338;29;20031;-91
2022/09/24 05:03:20;;;;;;;4.13;2.95;;;;;;;7.15;77.92;99818.16;4922849;29;20110;-90
2022/09/24 05:05:46;;;;;;;3.47;2.80;;;;;;;7.02;78.20;99807.69;4954250;29;20027;-90
2022/09/24 05:08:12;;;;;;;5.85;3.08;;;;;;;7.01;78.19;99806.84;4922633;29;20027;-90
2022/09/24 05:10:39;;;;;;;6.15;2.80;;;;;;;7.16;77.61;99805.56;4938540;29;20034;-91
2022/09/24 05:13:05;;;;;;;3.92;2.83;;;;;;;7.37;77.24;99823.72;4938419;29;20498;-91
2022/09/24 05:15:31;;;;;;;7.85;3.00;;;;;;;7.41;77.17;99811.47;4922337;29;20046;-90
2022/09/24 05:17:57;;;;;;;6.97;3.70;;;;;;;7.65;77.02;99816.75;4937791;29;20481;-90
2022/09/24 05:20:23;;;;;;;8.95;3.17;;;;;;;7.62;77.02;99801.97;4920541;29;20383;-91
2022/09/24 05:22:49;;;;;;;6.38;3.25;;;;;;;7.64;77.33;99802.56;4903080;29;20114;-91
2022/09/24 05:25:16;;;;;;;9.40;3.38;;;;;;;7.84;76.81;99820.91;4918736;29;20519;-90
2022/09/24 05:27:49;;;;;;;6.80;4.18;;;;;;;7.91;76.66;99807.34;4934891;29;20032;-91
2022/09/24 05:30:15;;;;;;;5.22;3.55;;;;;;;7.85;77.50;99793.03;4919376;29;20125;-90
2022/09/24 05:32:42;;;;;;;4.88;3.28;;;;;;;7.96;77.72;99802.06;4922051;29;20034;-90
2022/09/24 05:35:08;;;;;;;4.40;3.25;;;;;;;8.13;77.19;99815.50;4953795;29;20038;-90
2022/09/24 05:37:35;;;;;;;6.70;5.15;;;;;;;8.24;77.16;99825.38;4937360;29;20042;-90
2022/09/24 05:40:46;;;;;;;6.07;3.42;;;;;;;8.21;76.46;99807.06;4953670;29;20606;-91
2022/09/24 05:42:47;;;;;;;7.93;3.40;;;;;;;8.24;77.71;99809.28;4940286;29;20041;-91
2022/09/24 05:45:16;;;;;;;9.18;3.17;;;;;;;8.39;76.81;99807.91;4937541;29;20031;-91
2022/09/24 05:47:44;;;;;;;8.55;4.13;;;;;;;8.45;77.08;99813.13;4937724;29;20024;-90
2022/09/24 05:50:12;;;;;;;4.65;3.55;;;;;;;8.56;77.16;99813.31;4937204;29;20035;-89
2022/09/24 05:52:41;;;;;;;6.97;4.20;;;;;;;8.67;76.93;99810.53;4937708;29;20122;-91
2022/09/24 05:55:08;;;;;;;6.55;3.75;;;;;;;8.87;76.46;99825.31;4922041;29;20393;-90
2022/09/24 05:57:35;;;;;;;8.23;5.25;;;;;;;9.09;76.31;99836.94;4922091;29;20046;-91
2022/09/24 06:00:05;;;;;;;10.57;5.18;;;;;;;9.10;75.13;99827.00;4953277;29;20046;-90
2022/09/24 06:02:36;;;;;;;7.90;3.80;;;;;;;9.34;74.59;99841.03;4953160;29;20039;-90
2022/09/24 06:05:02;;;;;;;5.47;3.92;;;;;;;9.40;73.43;99833.84;4951616;29;20130;-90
2022/09/24 06:07:29;;;;;;;5.40;4.00;;;;;;;9.51;72.32;99827.53;4937331;29;20027;-90
2022/09/24 06:09:58;;;;;;;8.63;3.35;;;;;;;9.78;71.95;99835.66;4936878;29;20449;-90
2022/09/24 06:12:24;;;;;;;5.50;3.65;;;;;;;9.79;70.89;99833.78;4935782;28;20517;-90
2022/09/24 06:14:52;;;;;;;11.40;3.95;;;;;;;9.92;70.18;99836.09;4918672;29;20106;-89
2022/09/24 06:17:22;;;;;;;6.50;4.50;;;;;;;10.01;69.32;99849.91;4902758;29;20506;-90
2022/09/24 06:19:49;;;;;;;9.45;4.95;;;;;;;10.02;68.12;99852.34;4918838;29;20035;-89
2022/09/24 06:22:15;;;;;;;6.63;4.57;;;;;;;10.16;67.97;99850.03;4933985;29;20034;-91
2022/09/24 06:24:41;;;;;;;8.68;6.53;;;;;;;10.19;67.65;99838.78;4902549;29;20043;-90
2022/09/24 06:27:06;;;;;;;7.90;6.15;;;;;;;10.38;67.03;99841.94;4918326;29;20401;-90
2022/09/24 06:29:34;;;;;;;10.43;7.22;;;;;;;10.55;67.10;99859.88;4901774;29;20075;-90
2022/09/24 06:32:02;;;;;;;9.00;7.68;;;;;;;10.65;67.23;99859.94;4917786;29;20046;-90
2022/09/24 06:34:28;;;;;;;11.13;7.97;;;;;;;10.59;68.23;99826.78;4933739;29;20508;-90
2022/09/24 06:36:55;;;;;;;8.85;7.10;;;;;;;10.98;67.69;99868.78;4918257;29;20035;-90
2022/09/24 06:39:22;;;;;;;11.60;6.47;;;;;;;10.96;67.72;99842.13;4902802;29;20043;-90
2022/09/24 06:41:50;;;;;;;23.38;8.80;;;;;;;10.94;67.20;99846.97;4902892;29;20023;-90
2022/09/24 06:44:18;;;;;;;8.73;5.60;;;;;;;11.03;67.69;99848.09;4887086;29;20041;-89
2022/09/24 06:46:44;;;;;;;7.13;5.05;;;;;;;10.97;66.87;99842.94;4918491;29;20407;-90
2022/09/24 06:49:11;;;;;;;10.32;6.68;;;;;;;11.20;66.40;99860.59;4887198;29;20042;-90
2022/09/24 06:51:37;;;;;;;13.23;6.28;;;;;;;11.31;66.85;99876.59;4902561;29;20042;-89
2022/09/24 06:54:03;;;;;;;9.48;5.40;;;;;;;11.23;66.54;99866.28;4902183;29;20027;-89
2022/09/24 06:56:29;;;;;;;13.93;5.60;;;;;;;11.42;67.30;99874.75;4901870;29;20031;-89
2022/09/24 06:58:56;;;;;;;11.00;5.35;;;;;;;11.52;66.39;99860.50;4917693;29;20016;-89
2022/09/24 07:01:21;;;;;;;8.05;5.05;;;;;;;11.71;65.88;99866.25;4889529;29;20414;-89
2022/09/24 07:03:47;;;;;;;6.93;4.60;;;;;;;11.81;65.16;99874.38;4905539;29;20043;-89
2022/09/24 07:06:13;;;;;;;10.35;4.40;;;;;;;11.93;64.32;99863.38;4905101;29;20078;-88
2022/09/24 07:08:39;;;;;;;8.05;5.07;;;;;;;12.12;63.68;99872.63;4905333;29;20379;-89
2022/09/24 07:11:06;;;;;;;9.95;4.28;;;;;;;12.14;64.03;99861.56;4889103;29;20091;-89
2022/09/24 07:13:32;;;;;;;7.40;4.45;;;;;;;12.35;63.54;99867.81;4905109;29;20131;-90
2022/09/24 07:16:00;;;;;;;5.53;3.75;;;;;;;12.60;62.91;99877.84;4920532;29;20046;-89
2022/09/24 07:18:25;;;;;;;11.23;5.60;;;;;;;12.64;63.08;99875.41;4919225;29;20309;-88
2022/09/24 07:20:56;;;;;;;8.80;4.32;;;;;;;12.81;62.36;99875.94;4904599;29;20082;-89
2022/09/24 07:23:23;;;;;;;5.68;3.63;;;;;;;12.99;61.62;99862.94;4906117;29;20035;-90
2022/09/24 07:25:48;;;;;;;5.07;3.17;;;;;;;13.26;60.54;99879.69;4905580;29;20023;-89
2022/09/24 07:28:18;;;;;;;7.15;3.70;;;;;;;13.18;60.25;99863.19;4889433;29;20047;-89
2022/09/24 07:30:43;;;;;;;4.45;2.95;;;;;;;13.39;59.19;99858.59;4906250;29;20035;-89
2022/09/24 07:33:09;;;;;;;2.97;2.53;;;;;;;13.60;58.64;99864.75;4905405;29;20024;-89
2022/09/24 07:35:38;;;;;;;3.80;2.90;;;;;;;13.69;58.85;99853.06;4905122;29;20043;-89
2022/09/24 07:38:07;;;;;;;4.75;2.85;;;;;;;13.89;58.57;99867.59;4920229;29;20400;-90
2022/09/24 07:40:33;;;;;;;5.00;3.40;;;;;;;13.91;59.14;99862.72;4904634;29;20036;-89
2022/09/24 07:42:59;;;;;;;4.05;2.88;;;;;;;14.09;58.47;99851.25;4905325;29;20038;-93
2022/09/24 07:45:28;;;;;;;6.05;2.67;;;;;;;14.28;57.56;99854.09;4902736;29;20028;-88
2022/09/24 07:48:01;;;;;;;5.30;2.45;;;;;;;14.33;56.44;99853.25;4886556;29;20079;-89
2022/09/24 07:53:33;;;;;;;4.32;2.13;;;;;;;14.60;53.36;99855.53;4821130;29;20564;-88
2022/09/24 07:55:58;;;;;;;2.60;2.13;;;;;;;14.76;52.76;99853.50;4813951;29;20037;-88
2022/09/24 07:58:24;;;;;;;2.65;2.15;;;;;;;14.85;53.26;99865.34;4829226;29;20572;-87
2022/09/24 08:00:49;;;;;;;6.60;4.05;;;;;;;14.90;53.22;99851.75;4829501;29;20044;-86
2022/09/24 08:03:15;;;;;;;4.93;2.60;;;;;;;15.05;52.46;99850.78;4828551;29;20049;-88
2022/09/24 08:05:46;;;;;;;3.00;2.30;;;;;;;15.32;52.57;99863.00;4813810;29;20029;-88
2022/09/24 08:08:13;;;;;;;3.53;2.55;;;;;;;15.36;51.87;99845.84;4829813;29;20033;-89
2022/09/24 08:10:40;;;;;;;4.68;2.42;;;;;;;15.50;50.84;99851.41;4829060;29;20064;-87
2022/09/24 08:13:06;;;;;;;4.30;2.30;;;;;;;15.64;50.03;99853.41;4858307;29;20040;-87
2022/09/24 08:15:34;;;;;;;4.50;3.20;;;;;;;15.72;49.68;99869.09;4865211;29;20099;-88
2022/09/24 08:18:02;;;;;;;5.97;3.90;;;;;;;15.80;49.42;99854.88;4896175;29;20444;-87
2022/09/24 08:20:28;;;;;;;2.53;2.03;;;;;;;15.78;48.06;99840.78;4865455;29;20029;-88
2022/09/24 08:22:54;;;;;;;3.33;2.40;;;;;;;15.75;48.57;99844.09;4896773;29;20033;-88
2022/09/24 08:25:20;;;;;;;3.33;1.90;;;;;;;15.91;45.07;99863.69;4880979;29;20556;-88
2022/09/24 08:27:45;;;;;;;4.03;1.52;;;;;;;15.97;45.24;99857.09;4896417;29;20110;-88
2022/09/24 08:30:11;;;;;;;2.17;1.60;;;;;;;15.98;43.86;99838.88;4865584;29;20036;-87
2022/09/24 08:32:36;;;;;;;2.65;1.65;;;;;;;16.11;44.37;99844.38;4880794;29;20024;-88
2022/09/24 08:35:03;;;;;;;3.10;1.88;;;;;;;16.09;44.55;99835.72;4865783;29;20049;-89
2022/09/24 08:37:28;;;;;;;4.90;3.13;;;;;;;16.35;44.23;99862.50;4881065;29;20119;-88
2022/09/24 08:39:54;;;;;;;2.67;1.90;;;;;;;16.14;43.95;99845.72;4865409;29;20136;-88
2022/09/24 08:42:26;;;;;;;3.17;1.80;;;;;;;16.23;43.98;99857.53;4866104;29;20025;-88
2022/09/24 08:48:12;;;;;;;4.10;1.85;;;;;;;16.40;44.56;99842.63;4941708;29;20081;-89
2022/09/24 08:50:39;;;;;;;2.95;1.80;;;;;;;16.49;43.67;99857.94;4923071;29;20031;-89
2022/09/24 08:53:32;;;;;;;3.88;2.75;;;;;;;16.54;45.35;99857.09;4938379;29;20083;-89
2022/09/24 08:55:59;;;;;;;2.80;1.98;;;;;;;16.60;43.83;99845.03;4955255;29;20498;-89
2022/09/24 08:58:35;;;;;;;2.30;1.60;;;;;;;16.75;42.15;99852.91;4922195;29;20406;-88
2022/09/24 09:01:05;;;;;;;4.22;1.90;;;;;;;16.76;41.88;99849.06;4937487;29;20410;-90
2022/09/24 09:03:37;;;;;;;2.33;1.80;;;;;;;16.83;42.14;99859.63;4919560;29;20035;-89
2022/09/24 09:06:42;;;;;;;3.00;2.00;;;;;;;16.87;43.02;99862.53;4918603;29;20508;-89
2022/09/24 09:09:15;;;;;;;3.33;1.70;;;;;;;16.76;41.90;99849.06;4935108;29;20099;-89
2022/09/24 09:11:45;;;;;;;3.50;1.85;;;;;;;16.74;41.54;99845.06;4903599;29;20031;-89
2022/09/24 09:14:17;;;;;;;2.65;1.75;;;;;;;16.71;41.23;99835.59;4903202;29;20086;-89
2022/09/24 09:17:26;;;;;;;4.40;2.00;;;;;;;16.79;41.47;99836.81;4903224;29;20561;-89
2022/09/24 09:19:55;;;;;;;2.38;1.55;;;;;;;16.91;41.60;99834.47;4898408;29;20036;-89
2022/09/24 09:22:24;;;;;;;2.70;1.90;;;;;;;17.08;41.35;99841.22;4918765;29;20126;-89
2022/09/24 09:24:50;;;;;;;4.32;1.90;;;;;;;17.08;41.19;99836.59;4902135;29;20027;-89
2022/09/24 09:27:17;;;;;;;5.10;2.58;;;;;;;17.11;42.46;99835.19;4918483;29;20030;-89
2022/09/24 09:29:59;;;;;;;3.40;2.60;;;;;;;17.33;41.62;99826.34;4902363;29;20062;-90
2022/09/24 09:32:43;;;;;;;2.30;1.85;;;;;;;17.32;41.74;99851.94;4902755;29;20498;-90
2022/09/24 09:35:20;;;;;;;3.60;2.72;;;;;;;17.16;40.96;99843.25;4934024;29;20059;-89
2022/09/24 09:37:49;;;;;;;2.83;1.92;;;;;;;17.16;41.07;99845.97;4918638;29;20027;-89
2022/09/24 09:40:34;;;;;;;2.92;2.15;;;;;;;17.14;40.47;99818.25;4933842;29;20057;-89
2022/09/24 09:43:01;;;;;;;3.28;2.08;;;;;;;17.25;40.91;99810.72;4903724;29;20478;-89
2022/09/24 09:45:47;;;;;;;3.72;2.38;;;;;;;17.51;41.43;99816.44;4918162;29;20024;-90
2022/09/24 09:48:15;;;;;;;2.83;2.10;;;;;;;17.30;41.07;99808.69;4920848;29;20107;-89
2022/09/24 09:50:54;;;;;;;3.08;2.05;;;;;;;17.60;40.15;99795.56;4902549;29;20035;-89
2022/09/24 09:53:20;;;;;;;3.50;2.33;;;;;;;18.00;39.54;99819.53;4917503;29;20034;-90
2022/09/24 09:55:51;;;;;;;5.55;2.33;;;;;;;18.07;39.02;99804.34;4902136;29;20035;-89
2022/09/24 09:58:18;;;;;;;2.45;1.90;;;;;;;18.25;38.30;99816.22;4903052;29;20035;-88
2022/09/24 10:00:48;;;;;;;2.42;1.83;;;;;;;18.11;36.87;99802.63;4902419;29;20028;-90
2022/09/24 10:03:30;;;;;;;2.83;1.60;;;;;;;18.10;36.88;99820.09;4903781;29;20402;-90
2022/09/24 10:05:58;;;;;;;7.55;1.70;;;;;;;17.88;37.07;99812.69;4890123;29;20055;-89
2022/09/24 10:08:24;;;;;;;2.10;1.63;;;;;;;17.85;37.49;99816.03;4924005;28;20027;-88
2022/09/24 10:11:00;;;;;;;3.92;1.55;;;;;;;17.68;36.90;99794.03;4940639;28;20030;-90
2022/09/24 10:13:27;;;;;;;2.20;1.65;;;;;;;17.76;37.06;99794.13;4936112;29;20044;-89
2022/09/24 10:15:56;;;;;;;2.10;1.60;;;;;;;18.02;36.71;99795.50;4919100;29;20035;-90
2022/09/24 10:18:42;;;;;;;2.70;1.95;;;;;;;18.18;36.79;99796.78;4917082;29;20082;-90
2022/09/24 10:21:10;;;;;;;1.55;1.20;;;;;;;18.19;35.49;99779.28;4900455;29;20108;-89
2022/09/24 10:23:43;;;;;;;3.42;2.30;;;;;;;18.35;34.85;99796.88;4914715;29;20025;-91
2022/09/24 10:26:09;;;;;;;2.45;1.55;;;;;;;18.40;35.30;99784.25;4914393;29;20040;-90
2022/09/24 10:31:28;;;;;;;8.95;1.70;;;;;;;18.36;33.79;99771.25;4907820;29;20039;-95
2022/09/24 10:33:55;;;;;;;5.05;1.60;;;;;;;18.48;32.50;99765.22;4904395;29;20055;-96
2022/09/24 10:36:25;;;;;;;1.67;1.50;;;;;;;18.57;32.32;99778.91;4910270;29;20032;-90
2022/09/24 10:39:03;;;;;;;2.08;1.45;;;;;;;18.62;33.23;99786.16;4913521;29;20395;-95
2022/09/24 10:41:29;;;;;;;2.78;1.60;;;;;;;18.55;33.50;99762.88;4960336;29;20422;-96
2022/09/24 10:43:57;;;;;;;2.03;1.48;;;;;;;18.57;33.00;99765.25;4946004;29;20019;-96
2022/09/24 10:46:34;;;;;;;2.58;1.40;;;;;;;18.64;32.40;99762.09;4946480;29;20027;-96
2022/09/24 10:49:18;;;;;;;1.90;1.50;;;;;;;18.84;33.62;99782.59;4964216;29;20027;-95
2022/09/24 10:51:51;;;;;;;2.40;1.85;;;;;;;18.53;32.63;99751.47;4962942;29;20120;-95
2022/09/24 10:54:35;;;;;;;3.35;1.55;;;;;;;18.76;32.09;99774.03;4946242;29;20023;-96
2022/09/24 10:57:09;;;;;;;5.55;1.88;;;;;;;18.49;31.70;99752.38;4962852;29;20031;-96
2022/09/24 11:00:38;;;;;;;2.67;1.70;;;;;;;18.71;31.33;99752.34;4960462;29;20019;-91
2022/09/24 11:03:56;;;;;;;4.03;1.60;;;;;;;18.63;31.62;99755.81;4934730;29;20542;-92
2022/09/24 11:07:23;;;;;;;2.47;1.50;;;;;;;18.70;31.43;99750.75;4937276;29;20043;-93
2022/09/24 11:10:29;;;;;;;3.15;1.73;;;;;;;18.43;32.43;99729.91;4880313;29;20138;-95
2022/09/24 11:13:03;;;;;;;1.70;1.30;;;;;;;18.61;31.98;99751.81;4870693;29;20132;-96
2022/09/24 11:15:57;;;;;;;3.75;1.58;;;;;;;18.55;31.39;99749.22;4934948;29;20067;-96
2022/09/24 11:18:44;;;;;;;3.05;1.50;;;;;;;18.45;31.85;99724.13;4941747;29;20079;-96
2022/09/24 11:21:56;;;;;;;2.67;1.75;;;;;;;18.60;31.75;99742.81;4914935;29;20037;-95
2022/09/24 11:24:51;;;;;;;1.85;1.50;;;;;;;18.40;31.94;99713.34;4919365;29;20126;-95
2022/09/24 11:27:37;;;;;;;1.88;1.48;;;;;;;18.56;32.23;99726.28;4934375;29;20068;-96
2022/09/24 11:30:09;;;;;;;1.83;1.45;;;;;;;18.65;31.77;99733.69;4924339;29;20515;-94
2022/09/24 11:33:01;;;;;;;2.22;1.60;;;;;;;18.56;32.31;99695.47;4925861;29;20126;-95
2022/09/24 11:36:22;;;;;;;3.42;2.30;;;;;;;18.67;31.67;99706.91;4954862;29;20039;-95
2022/09/24 11:39:09;;;;;;;3.10;1.40;;;;;;;18.77;31.26;99728.47;4874440;29;20039;-95
2022/09/24 11:42:02;;;;;;;1.60;1.20;;;;;;;18.51;31.13;99710.06;4961369;28;20118;-93
2022/09/24 11:44:31;;;;;;;1.67;1.27;;;;;;;18.66;31.79;99727.16;4957629;29;20394;-92
2022/09/24 11:47:25;;;;;;;2.40;1.48;;;;;;;18.55;31.34;99702.03;4956801;28;20035;-95
2022/09/24 11:50:01;;;;;;;1.80;1.38;;;;;;;18.69;31.08;99710.13;4885360;29;20526;-95
2022/09/24 11:52:46;;;;;;;1.77;1.40;;;;;;;18.61;31.78;99716.34;4869508;29;20119;-92
2022/09/24 11:55:34;;;;;;;2.85;1.70;;;;;;;18.69;31.43;99708.19;4937992;29;20070;-94
2022/09/24 11:58:09;;;;;;;3.40;1.50;;;;;;;18.66;30.74;99689.75;4981191;28;20031;-95
2022/09/24 12:00:53;;;;;;;2.72;1.52;;;;;;;18.79;30.74;99696.25;4965618;29;20031;-96
2022/09/24 12:03:37;;;;;;;2.03;1.30;;;;;;;18.97;30.86;99710.75;4960234;29;20063;-96
2022/09/24 12:06:07;;;;;;;2.47;1.50;;;;;;;18.90;30.93;99691.31;4959471;29;20027;-95
2022/09/24 12:08:37;;;;;;;1.90;1.30;;;;;;;18.97;29.99;99695.19;4926649;29;20066;-96
2022/09/24 12:11:21;;;;;;;2.20;1.63;;;;;;;19.14;29.83;99710.81;4948081;29;20098;-96
2022/09/24 12:13:55;;;;;;;3.28;1.70;;;;;;;19.10;30.87;99707.09;4958565;29;20465;-96